CYRB

Details ICAO CYRB (YRB)
Name RESOLUTE BAY
Region Canada
Timezone America/Resolute (UTC-5.0)
Plans Departing 31
Arriving 49
Stats Elevation 215 ft / 66 m (AMSL)
Location 74.716900° -94.969334°
Runways 1
Magnetic Variation 22.387° W
Sunrise Unknown / Unknown
Sunset Unknown / Unknown
Advertisement - Login to hide

Runways

ID Width Length Bearing (true) Bearing (mag) Surface Threshold Offset Overrun Length
17T 200 ft / 61 m 6,482 ft / 1,976 m 166.69° 189.08° Gravel 0 ft / 0 m 0 ft / 0 m
35T 200 ft / 61 m 6,482 ft / 1,976 m 346.71° 9.10° Gravel 0 ft / 0 m 0 ft / 0 m

Map

Weather


0- 5 10 15 20 25 30 35+ Temperature / ° C

Clouds and Precipitation
Forecast for 2018-05-26 06:00 UTC. Updated 3 hours ago

Ground ~20,000 ft ~40,000 ft Winds

METAR

CYRB 260800Z 33004KT 2 1/2SM R35/5500VP6000FT/N BR SCT005 OVC015 M09/M11 A2990 RMK ST3SC5 SLP134

TAF

TAF CYRB 260548Z 2606/2706 33008KT P6SM SCT008 TEMPO 2606/2706 2SM BR OVC008 PROB30 2606/2706 1/2SM FZFG BKN004 RMK NXT FCST BY 261200Z
Warning: Do not use this data for real-world aviation or navigation. No guarantee of current accuracy is given.